Time;durP1;ratioP1;P1;durP2;ratioP2;P2;SDS_P1;SDS_P2;PMS_P1;PMS_P2;Temp;Humidity;BMP_temperature;BMP_pressure;BME280_temperature;BME280_humidity;BME280_pressure;Samples;Min_cycle;Max_cycle;Signal;HPM_P1;HPM_P2
2022/03/25 00:01:05;;;;;;;0.00;0.00;;;;;;;8.13;49.89;99578.63;4975729;28;20200;-59
2022/03/25 00:03:32;;;;;;;0.00;0.00;;;;;;;8.04;50.72;99573.25;4977289;28;20216;-59
2022/03/25 00:05:59;;;;;;;0.00;0.00;;;;;;;7.85;51.69;99576.34;4977032;28;20560;-60
2022/03/25 00:08:26;;;;;;;0.00;0.00;;;;;;;7.77;51.22;99579.50;4974399;28;20231;-60
2022/03/25 00:10:53;;;;;;;0.00;0.00;;;;;;;7.79;52.42;99580.22;4974558;28;20273;-59
2022/03/25 00:13:20;;;;;;;0.00;0.00;;;;;;;7.63;53.28;99580.47;4974481;28;20208;-60
2022/03/25 00:15:47;;;;;;;0.00;0.00;;;;;;;7.65;50.61;99573.38;4973899;28;20219;-60
2022/03/25 00:18:15;;;;;;;0.00;0.00;;;;;;;7.68;53.76;99574.03;4974247;28;20188;-60
2022/03/25 00:20:42;;;;;;;0.00;0.00;;;;;;;7.57;51.95;99576.53;4974079;28;20613;-59
2022/03/25 00:23:09;;;;;;;0.00;0.00;;;;;;;7.53;52.32;99568.13;4974010;28;20212;-59
2022/03/25 00:25:35;;;;;;;0.00;0.00;;;;;;;7.54;52.41;99567.19;4974011;28;20181;-59
2022/03/25 00:28:02;;;;;;;0.00;0.00;;;;;;;7.43;54.07;99567.09;4974349;28;20198;-59
2022/03/25 00:30:30;;;;;;;0.00;0.00;;;;;;;7.54;50.73;99567.19;4957244;28;20213;-60
2022/03/25 00:32:56;;;;;;;0.00;0.00;;;;;;;7.61;50.66;99566.75;4963603;28;20227;-60
2022/03/25 00:35:24;;;;;;;0.00;0.00;;;;;;;7.48;51.69;99565.00;4973520;28;20699;-60
2022/03/25 00:37:51;;;;;;;0.00;0.00;;;;;;;7.47;53.63;99565.94;4972822;28;20223;-59
2022/03/25 00:40:18;;;;;;;0.00;0.00;;;;;;;7.45;51.09;99561.81;4972552;28;20201;-60
2022/03/25 00:42:47;;;;;;;0.00;0.00;;;;;;;7.69;51.13;99567.03;4960455;28;20289;-59
2022/03/25 00:45:14;;;;;;;0.00;0.00;;;;;;;7.42;52.77;99560.25;4952931;29;20218;-60
2022/03/25 00:47:41;;;;;;;0.00;0.00;;;;;;;7.31;52.13;99555.00;4954617;28;20724;-59
2022/03/25 00:50:08;;;;;;;0.00;0.00;;;;;;;7.39;51.34;99550.91;4952880;28;20264;-59
2022/03/25 00:52:37;;;;;;;0.00;0.00;;;;;;;7.29;53.02;99554.28;4954806;29;20200;-60
2022/03/25 00:55:05;;;;;;;0.00;0.00;;;;;;;7.11;52.30;99544.22;4953611;28;20239;-60
2022/03/25 00:57:32;;;;;;;0.00;0.00;;;;;;;7.11;53.70;99546.81;4954386;28;20204;-60
2022/03/25 01:00:00;;;;;;;0.00;0.00;;;;;;;7.19;52.32;99546.28;4966724;28;20287;-60
2022/03/25 01:02:27;;;;;;;0.00;0.00;;;;;;;7.09;54.15;99551.28;4965197;28;20581;-59
2022/03/25 01:04:53;;;;;;;0.00;0.00;;;;;;;6.90;52.89;99549.94;4952168;29;20212;-60
2022/03/25 01:07:20;;;;;;;0.00;0.00;;;;;;;6.98;53.51;99548.59;4953691;28;20649;-59
2022/03/25 01:09:48;;;;;;;0.00;0.00;;;;;;;6.80;54.01;99548.91;4952014;29;20204;-60
2022/03/25 01:12:15;;;;;;;0.00;0.00;;;;;;;6.72;54.45;99546.00;4953029;28;20199;-60
2022/03/25 01:14:42;;;;;;;0.00;0.00;;;;;;;6.73;54.70;99540.72;4953614;28;20221;-59
2022/03/25 01:17:08;;;;;;;0.00;0.00;;;;;;;6.70;55.11;99545.28;4952509;29;20200;-60
2022/03/25 01:19:35;;;;;;;0.00;0.00;;;;;;;6.62;55.49;99540.59;4952488;28;20208;-60
2022/03/25 01:22:03;;;;;;;0.00;0.00;;;;;;;6.62;55.40;99546.59;4954153;28;20189;-60
2022/03/25 01:24:30;;;;;;;0.00;0.00;;;;;;;6.60;56.90;99548.47;4952015;29;20219;-59
2022/03/25 01:26:59;;;;;;;0.00;0.00;;;;;;;6.47;56.84;99545.88;4953897;28;20268;-59
2022/03/25 01:29:26;;;;;;;0.00;0.00;;;;;;;6.44;55.41;99545.22;4959053;28;20204;-60
2022/03/25 01:31:54;;;;;;;0.00;0.00;;;;;;;6.44;55.29;99543.50;4971117;28;20229;-60
2022/03/25 01:34:21;;;;;;;0.00;0.00;;;;;;;6.61;54.47;99544.13;4971162;28;20239;-59
2022/03/25 01:36:49;;;;;;;0.00;0.00;;;;;;;6.57;54.59;99545.28;4973102;28;20188;-60
2022/03/25 01:39:16;;;;;;;0.00;0.00;;;;;;;6.40;55.35;99544.63;4972817;28;20179;-60
2022/03/25 01:41:47;;;;;;;0.00;0.00;;;;;;;6.40;54.42;99543.78;4972620;28;20191;-60
2022/03/25 01:44:25;;;;;;;0.00;0.00;;;;;;;6.37;55.61;99546.56;4970839;28;20222;-60
2022/03/25 01:46:52;;;;;;;0.00;0.00;;;;;;;6.27;56.96;99548.94;4972769;28;20179;-60
2022/03/25 01:49:19;;;;;;;0.00;0.00;;;;;;;6.31;55.17;99542.63;4973040;28;20191;-60
2022/03/25 01:51:49;;;;;;;0.00;0.00;;;;;;;6.24;56.66;99537.03;4971540;28;20661;-59
2022/03/25 01:54:20;;;;;;;0.00;0.00;;;;;;;6.17;55.91;99540.97;4970361;28;20619;-59
2022/03/25 01:56:52;;;;;;;0.00;0.00;;;;;;;6.25;57.97;99537.84;4972200;28;20197;-60
2022/03/25 01:59:21;;;;;;;0.00;0.00;;;;;;;6.17;56.42;99540.97;4969788;28;20703;-60
2022/03/25 02:04:22;;;;;;;0.00;0.00;;;;;;;6.21;56.22;99539.81;4963522;28;20219;-58
2022/03/25 02:06:49;;;;;;;0.00;0.00;;;;;;;6.04;56.14;99539.16;4969852;28;20209;-59
2022/03/25 02:09:17;;;;;;;0.00;0.00;;;;;;;6.09;56.42;99528.47;4981913;28;20207;-58
2022/03/25 02:11:44;;;;;;;0.00;0.00;;;;;;;6.04;55.62;99530.53;4969865;28;20560;-58
2022/03/25 02:14:12;;;;;;;0.00;0.00;;;;;;;6.02;55.34;99527.22;4951023;28;20204;-58
2022/03/25 02:16:43;;;;;;;0.00;0.00;;;;;;;6.07;55.58;99529.53;4967425;28;20226;-59
2022/03/25 02:19:13;;;;;;;0.00;0.00;;;;;;;6.09;55.26;99518.09;4953476;28;20189;-59
2022/03/25 02:21:42;;;;;;;0.00;0.00;;;;;;;6.14;56.61;99531.59;4951703;28;20221;-59
2022/03/25 02:24:12;;;;;;;0.00;0.00;;;;;;;6.15;57.01;99525.47;4967281;28;20209;-58
2022/03/25 02:26:40;;;;;;;0.00;0.00;;;;;;;6.07;56.55;99521.75;4951825;28;20555;-58
2022/03/25 02:29:13;;;;;;;0.00;0.00;;;;;;;6.16;56.19;99524.56;4951998;28;20198;-58
2022/03/25 02:31:40;;;;;;;0.00;0.00;;;;;;;6.09;55.18;99525.06;4951206;28;20673;-58
2022/03/25 02:34:10;;;;;;;0.00;0.00;;;;;;;6.18;54.96;99524.47;4967455;28;20220;-58
2022/03/25 02:36:42;;;;;;;0.00;0.00;;;;;;;6.17;55.34;99520.22;4952891;28;20299;-59
2022/03/25 02:39:12;;;;;;;0.00;0.00;;;;;;;6.11;55.33;99523.22;4953233;28;20221;-58
2022/03/25 02:41:39;;;;;;;0.00;0.00;;;;;;;6.04;55.95;99523.59;4967627;28;20531;-58
2022/03/25 02:44:07;;;;;;;0.00;0.00;;;;;;;6.03;54.69;99521.09;4967588;28;20240;-58
2022/03/25 02:46:35;;;;;;;0.00;0.00;;;;;;;5.96;55.49;99525.81;4951956;29;20200;-59
2022/03/25 02:49:02;;;;;;;0.00;0.00;;;;;;;5.89;56.05;99521.97;4951811;28;20290;-58
2022/03/25 02:51:29;;;;;;;0.00;0.00;;;;;;;5.94;55.75;99519.06;4952904;28;20217;-58
2022/03/25 02:53:57;;;;;;;0.00;0.00;;;;;;;5.94;55.85;99517.31;4952737;28;20537;-58
2022/03/25 02:56:24;;;;;;;0.00;0.00;;;;;;;5.80;54.59;99512.19;4952965;28;20579;-58
2022/03/25 02:58:53;;;;;;;0.00;0.00;;;;;;;5.95;55.62;99513.81;4952776;28;20195;-58
2022/03/25 03:01:20;;;;;;;0.00;0.00;;;;;;;5.82;56.79;99511.19;4952774;28;20671;-58
2022/03/25 03:03:47;;;;;;;0.00;0.00;;;;;;;5.79;56.34;99513.97;4952613;28;20219;-58
2022/03/25 03:06:14;;;;;;;0.00;0.00;;;;;;;5.78;56.66;99522.66;4967522;28;20210;-58
2022/03/25 03:08:41;;;;;;;0.00;0.00;;;;;;;5.68;57.29;99519.81;4952810;28;20223;-59
2022/03/25 03:11:11;;;;;;;0.00;0.00;;;;;;;5.66;57.01;99519.06;4952571;28;20211;-58
2022/03/25 03:13:41;;;;;;;0.00;0.00;;;;;;;5.70;57.76;99523.13;4952916;28;20207;-59
2022/03/25 03:16:09;;;;;;;0.00;0.00;;;;;;;5.56;57.33;99524.03;4952915;28;20665;-58
2022/03/25 03:18:35;;;;;;;0.00;0.00;;;;;;;5.67;57.21;99522.50;4952778;28;20563;-58
2022/03/25 03:21:02;;;;;;;0.00;0.00;;;;;;;5.52;57.90;99525.13;4952635;28;20188;-58
2022/03/25 03:23:29;;;;;;;0.00;0.00;;;;;;;5.42;58.49;99524.06;4952741;28;20212;-58
2022/03/25 03:25:56;;;;;;;0.00;0.00;;;;;;;5.48;57.42;99526.25;4952540;28;20192;-58
2022/03/25 03:28:24;;;;;;;0.00;0.00;;;;;;;5.38;58.22;99515.63;4952785;28;20187;-58
2022/03/25 03:30:51;;;;;;;0.00;0.00;;;;;;;5.32;58.87;99529.78;4952352;28;20196;-59
2022/03/25 03:33:17;;;;;;;0.00;0.00;;;;;;;5.31;58.77;99522.97;4952664;28;20216;-58
2022/03/25 03:35:44;;;;;;;0.00;0.00;;;;;;;5.20;58.90;99516.78;4952354;28;20243;-58
2022/03/25 03:38:12;;;;;;;0.00;0.00;;;;;;;5.16;59.68;99516.97;4952660;28;20188;-58
2022/03/25 03:40:39;;;;;;;0.00;0.00;;;;;;;5.13;59.82;99509.41;4952280;28;20190;-58
2022/03/25 03:43:11;;;;;;;0.00;0.00;;;;;;;5.09;59.71;99501.91;4953187;28;20211;-58
2022/03/25 03:45:43;;;;;;;0.00;0.00;;;;;;;5.08;60.52;99508.00;4954574;29;20815;-58
2022/03/25 03:48:09;;;;;;;0.00;0.00;;;;;;;5.03;60.34;99503.13;4956190;28;20193;-58
2022/03/25 03:50:36;;;;;;;0.00;0.00;;;;;;;4.94;60.43;99501.09;4955945;28;20185;-58
2022/03/25 03:53:03;;;;;;;0.00;0.00;;;;;;;5.01;60.78;99505.78;4956031;28;20211;-58
2022/03/25 03:55:32;;;;;;;0.00;0.00;;;;;;;5.00;60.81;99503.31;4955463;28;20270;-58
2022/03/25 03:58:18;;;;;;;0.00;0.00;;;;;;;4.95;59.94;99505.34;4956158;29;20210;-58
2022/03/25 04:00:46;;;;;;;0.00;0.00;;;;;;;4.98;59.15;99503.38;4955238;28;20200;-58
2022/03/25 04:03:13;;;;;;;0.00;0.00;;;;;;;4.91;59.01;99502.09;4955665;28;20215;-58
2022/03/25 04:05:39;;;;;;;0.00;0.00;;;;;;;5.09;60.28;99505.34;4954132;29;20637;-58
2022/03/25 04:08:08;;;;;;;0.00;0.00;;;;;;;5.03;61.42;99505.72;4954320;29;20587;-58
2022/03/25 04:10:34;;;;;;;0.00;0.00;;;;;;;4.96;60.64;99505.22;4955179;28;20240;-58
2022/03/25 04:13:01;;;;;;;0.00;0.00;;;;;;;5.35;57.80;99507.22;4955581;28;20765;-59
2022/03/25 04:15:28;;;;;;;31.03;16.40;;;;;;;5.37;59.54;99506.19;4954976;28;20203;-58
2022/03/25 04:17:56;;;;;;;32.77;16.37;;;;;;;5.17;59.47;99508.28;4955421;28;20262;-59
2022/03/25 04:20:23;;;;;;;35.10;16.70;;;;;;;5.11;59.73;99505.22;4955549;28;20212;-59
2022/03/25 04:22:50;;;;;;;31.73;16.17;;;;;;;5.15;60.50;99506.72;4955183;29;20255;-58
2022/03/25 04:25:21;;;;;;;33.03;16.87;;;;;;;5.26;60.18;99506.06;4954844;28;20183;-59
2022/03/25 04:27:50;;;;;;;32.20;16.27;;;;;;;5.10;59.52;99503.56;4970034;28;20623;-59
2022/03/25 04:30:23;;;;;;;33.80;16.67;;;;;;;5.35;58.34;99512.41;4969792;28;20579;-58
2022/03/25 04:32:50;;;;;;;31.17;15.93;;;;;;;5.17;59.55;99510.03;4954743;28;20758;-58
2022/03/25 04:35:22;;;;;;;31.00;15.83;;;;;;;5.12;59.29;99518.09;4954552;28;20185;-58
2022/03/25 04:37:49;;;;;;;33.03;16.37;;;;;;;5.04;61.07;99525.50;4954927;28;20231;-58
2022/03/25 04:40:18;;;;;;;29.93;16.23;;;;;;;4.88;61.87;99515.22;4954764;28;20196;-58
2022/03/25 04:42:45;;;;;;;30.70;15.90;;;;;;;4.71;62.33;99524.84;4954937;29;20217;-58
2022/03/25 04:45:13;;;;;;;27.03;14.37;;;;;;;4.57;62.67;99525.63;4954573;29;20199;-57
2022/03/25 04:47:40;;;;;;;30.23;15.47;;;;;;;4.58;63.34;99523.91;4954855;29;20188;-57
2022/03/25 04:50:08;;;;;;;28.60;14.90;;;;;;;4.41;63.08;99530.88;4954460;28;20196;-57
2022/03/25 04:52:37;;;;;;;32.10;15.27;;;;;;;4.29;62.84;99526.41;4954767;28;20225;-57
2022/03/25 04:55:04;;;;;;;28.00;14.60;;;;;;;4.26;63.78;99526.59;4953895;28;20195;-57
2022/03/25 04:57:31;;;;;;;26.73;14.80;;;;;;;4.26;65.07;99527.41;4954638;28;20207;-57
2022/03/25 04:59:58;;;;;;;30.03;15.60;;;;;;;4.15;64.79;99527.22;4954378;29;20228;-56
2022/03/25 05:02:26;;;;;;;29.00;15.13;;;;;;;4.05;65.01;99533.81;4954382;28;20253;-58
2022/03/25 05:04:55;;;;;;;33.77;15.03;;;;;;;4.21;65.02;99531.19;4953643;28;20192;-59
2022/03/25 05:07:22;;;;;;;31.03;15.10;;;;;;;4.10;64.55;99531.81;4954436;29;20188;-59
2022/03/25 05:09:51;;;;;;;28.30;14.57;;;;;;;4.06;64.41;99530.31;4954246;28;20655;-59
2022/03/25 05:12:18;;;;;;;32.80;15.67;;;;;;;4.04;64.91;99532.97;4954524;28;20207;-58
2022/03/25 05:14:45;;;;;;;34.40;14.83;;;;;;;3.96;65.31;99535.16;4954012;29;20252;-58
2022/03/25 05:17:19;;;;;;;36.33;18.90;;;;;;;3.93;66.33;99533.59;4969035;28;20240;-59
2022/03/25 05:19:46;;;;;;;30.57;15.67;;;;;;;3.93;65.44;99535.31;4954216;28;20193;-59
2022/03/25 05:22:13;;;;;;;31.77;15.33;;;;;;;3.87;66.06;99533.09;4954265;29;20204;-58
2022/03/25 05:24:40;;;;;;;31.50;14.60;;;;;;;4.02;66.45;99532.22;4953958;28;20191;-58
2022/03/25 05:27:08;;;;;;;31.90;15.83;;;;;;;3.90;66.32;99527.75;4969160;28;20204;-58
2022/03/25 05:29:35;;;;;;;0.00;0.00;;;;;;;3.93;66.39;99525.00;4954014;28;20196;-58
2022/03/25 05:32:02;;;;;;;0.00;0.00;;;;;;;4.00;64.98;99528.91;4954071;28;20200;-58
2022/03/25 05:34:28;;;;;;;0.00;0.00;;;;;;;3.93;65.37;99525.84;4953525;28;20192;-58
2022/03/25 05:36:55;;;;;;;0.00;0.00;;;;;;;3.92;64.94;99529.34;4953924;28;20222;-59
2022/03/25 05:39:22;;;;;;;0.00;0.00;;;;;;;4.10;64.98;99530.03;4953951;28;20621;-59
2022/03/25 05:41:49;;;;;;;0.00;0.00;;;;;;;4.14;64.08;99528.13;4953599;28;20211;-58
2022/03/25 05:44:17;;;;;;;0.00;0.00;;;;;;;4.18;64.90;99531.38;4953294;28;20183;-58
2022/03/25 05:46:44;;;;;;;0.00;0.00;;;;;;;4.13;64.45;99535.03;4953829;28;20344;-58
2022/03/25 05:49:11;;;;;;;0.00;0.00;;;;;;;4.20;65.10;99535.53;4953830;28;20245;-58
2022/03/25 05:51:38;;;;;;;0.00;0.00;;;;;;;4.27;66.38;99544.59;4953428;28;20238;-58
2022/03/25 05:54:06;;;;;;;0.00;0.00;;;;;;;4.42;65.15;99554.97;4952805;28;20310;-58
2022/03/25 05:56:33;;;;;;;0.00;0.00;;;;;;;4.43;64.88;99559.22;4953417;28;20198;-58
2022/03/25 05:59:00;;;;;;;0.00;0.00;;;;;;;4.44;65.43;99560.88;4953447;28;20198;-59
2022/03/25 06:01:29;;;;;;;0.00;0.00;;;;;;;4.45;65.20;99561.72;4952928;28;20195;-58
2022/03/25 06:03:55;;;;;;;0.00;0.00;;;;;;;4.45;65.37;99570.31;4953088;28;20262;-58
2022/03/25 06:06:22;;;;;;;0.00;0.00;;;;;;;4.45;65.21;99577.25;4952681;28;20671;-58
2022/03/25 06:08:49;;;;;;;0.00;0.00;;;;;;;4.44;66.03;99571.22;4953539;28;20482;-58
2022/03/25 06:11:16;;;;;;;0.00;0.00;;;;;;;4.47;67.42;99570.22;4953000;28;20216;-58
2022/03/25 06:13:43;;;;;;;0.00;0.00;;;;;;;4.45;68.08;99565.13;4952280;29;20250;-58
2022/03/25 06:16:10;;;;;;;0.00;0.00;;;;;;;4.46;67.38;99568.56;4952812;28;20331;-58
2022/03/25 06:18:38;;;;;;;0.00;0.00;;;;;;;4.48;67.27;99566.72;4953075;28;20189;-58
2022/03/25 06:21:04;;;;;;;0.00;0.00;;;;;;;4.50;67.25;99570.88;4953189;28;20200;-58
2022/03/25 06:23:31;;;;;;;0.00;0.00;;;;;;;4.52;67.61;99570.78;4953252;28;20248;-59
2022/03/25 06:25:59;;;;;;;0.00;0.00;;;;;;;4.61;67.86;99569.41;4952557;28;20194;-57
2022/03/25 06:28:25;;;;;;;0.00;0.00;;;;;;;4.64;67.32;99584.75;4953217;28;20242;-56
2022/03/25 06:30:52;;;;;;;0.00;0.00;;;;;;;4.65;67.15;99582.09;4952881;28;20251;-57
2022/03/25 06:33:19;;;;;;;0.00;0.00;;;;;;;4.72;66.92;99579.97;4953000;28;20699;-57
2022/03/25 06:35:47;;;;;;;0.00;0.00;;;;;;;4.76;66.70;99578.06;4952668;28;20198;-57
2022/03/25 06:38:14;;;;;;;0.00;0.00;;;;;;;4.78;67.13;99576.19;4953062;28;20215;-58
2022/03/25 06:40:42;;;;;;;0.00;0.00;;;;;;;4.84;66.85;99573.22;4952755;28;20198;-58
2022/03/25 06:43:08;;;;;;;0.00;0.00;;;;;;;4.88;67.88;99572.13;4952994;28;20715;-57
2022/03/25 06:45:35;;;;;;;0.00;0.00;;;;;;;4.92;67.74;99576.19;4952580;28;20203;-57
2022/03/25 06:48:03;;;;;;;0.00;0.00;;;;;;;4.96;67.80;99582.03;4953058;28;20189;-58
2022/03/25 06:50:31;;;;;;;0.00;0.00;;;;;;;4.99;67.99;99577.50;4952727;28;20277;-57
2022/03/25 06:53:01;;;;;;;0.00;0.00;;;;;;;5.09;67.53;99588.16;4952711;28;20267;-57
2022/03/25 06:55:29;;;;;;;0.00;0.00;;;;;;;5.11;66.14;99591.47;4952193;28;20198;-57
2022/03/25 06:57:56;;;;;;;0.00;0.00;;;;;;;5.15;66.38;99587.78;4952749;28;20232;-58
2022/03/25 07:00:24;;;;;;;0.00;0.00;;;;;;;5.24;65.82;99593.34;4952630;28;20189;-58
2022/03/25 07:02:52;;;;;;;0.00;0.00;;;;;;;5.30;65.15;99595.56;4952729;28;20306;-59
2022/03/25 07:05:19;;;;;;;0.00;0.00;;;;;;;5.35;66.33;99596.06;4967188;28;20215;-59
2022/03/25 07:07:46;;;;;;;0.00;0.00;;;;;;;5.44;66.73;99589.53;4952773;28;20200;-59
2022/03/25 07:10:19;;;;;;;0.00;0.00;;;;;;;5.50;66.41;99596.06;4952721;28;20273;-59
2022/03/25 07:12:46;;;;;;;0.00;0.00;;;;;;;5.56;66.88;99599.13;4952770;28;20212;-59
2022/03/25 07:15:13;;;;;;;0.00;0.00;;;;;;;5.67;66.36;99600.22;4952366;28;20190;-59
2022/03/25 07:17:41;;;;;;;0.00;0.00;;;;;;;5.76;66.23;99605.66;4952891;28;20291;-59
2022/03/25 07:20:10;;;;;;;0.00;0.00;;;;;;;5.87;65.34;99604.16;4955994;28;20197;-59
2022/03/25 07:22:37;;;;;;;0.00;0.00;;;;;;;5.94;65.09;99605.44;4956445;28;20215;-58
2022/03/25 07:25:05;;;;;;;0.00;0.00;;;;;;;6.05;64.79;99609.94;4956127;28;20282;-59
2022/03/25 07:27:33;;;;;;;0.00;0.00;;;;;;;6.16;64.77;99611.88;4956710;28;20183;-59
2022/03/25 07:30:00;;;;;;;0.00;0.00;;;;;;;6.26;63.50;99609.50;4956092;28;20186;-59
2022/03/25 07:32:27;;;;;;;0.00;0.00;;;;;;;6.40;62.82;99614.66;4956342;28;20219;-59
2022/03/25 07:34:53;;;;;;;0.00;0.00;;;;;;;6.57;62.23;99623.09;4955877;28;20195;-59
2022/03/25 07:37:21;;;;;;;0.00;0.00;;;;;;;6.68;61.93;99614.59;4956252;28;20307;-59
2022/03/25 07:39:47;;;;;;;0.00;0.00;;;;;;;6.82;62.63;99618.88;4956009;28;20700;-59
2022/03/25 07:42:14;;;;;;;0.00;0.00;;;;;;;6.94;61.99;99624.06;4956298;28;20220;-59
2022/03/25 07:44:42;;;;;;;0.00;0.00;;;;;;;7.10;61.32;99615.25;4955844;28;20192;-59
2022/03/25 07:47:11;;;;;;;0.00;0.00;;;;;;;7.24;61.37;99622.94;4955993;28;20227;-59
2022/03/25 07:49:39;;;;;;;0.00;0.00;;;;;;;7.34;59.45;99625.72;4955774;29;20189;-59
2022/03/25 07:52:07;;;;;;;0.00;0.00;;;;;;;7.43;59.91;99629.44;4955995;28;20216;-59
2022/03/25 07:54:35;;;;;;;0.00;0.00;;;;;;;7.56;58.54;99629.44;4955638;28;20280;-59
2022/03/25 07:57:01;;;;;;;0.00;0.00;;;;;;;7.68;58.27;99628.59;4955843;28;20246;-60
2022/03/25 07:59:30;;;;;;;0.00;0.00;;;;;;;7.77;58.66;99631.50;4955870;28;20188;-59
2022/03/25 08:01:58;;;;;;;0.00;0.00;;;;;;;7.86;58.24;99637.78;4955470;28;20186;-59
2022/03/25 08:04:25;;;;;;;0.00;0.00;;;;;;;7.94;58.86;99632.88;4955358;28;20198;-59
2022/03/25 08:06:52;;;;;;;0.00;0.00;;;;;;;8.05;57.91;99640.75;4955789;28;20190;-59
2022/03/25 08:09:19;;;;;;;0.00;0.00;;;;;;;8.03;57.91;99636.59;4955747;28;20184;-59
2022/03/25 08:11:49;;;;;;;0.00;0.00;;;;;;;8.07;58.03;99638.03;4955451;28;20196;-59
2022/03/25 08:14:16;;;;;;;0.00;0.00;;;;;;;8.23;57.32;99636.00;4955019;28;20193;-59
2022/03/25 08:16:45;;;;;;;0.00;0.00;;;;;;;8.34;58.36;99635.22;4955465;28;20268;-59
2022/03/25 08:19:13;;;;;;;0.00;0.00;;;;;;;8.31;56.47;99635.47;4955495;28;20197;-59
2022/03/25 08:21:40;;;;;;;0.00;0.00;;;;;;;8.39;57.32;99642.69;4953967;29;20585;-59
2022/03/25 08:29:36;;;;;;;0.00;0.00;;;;;;;8.65;56.66;99640.81;5012028;28;20189;-60
2022/03/25 08:32:04;;;;;;;0.00;0.00;;;;;;;8.65;57.04;99640.00;5013566;28;20211;-60
2022/03/25 08:34:32;;;;;;;0.00;0.00;;;;;;;8.77;57.06;99640.84;5013168;28;20275;-61
2022/03/25 08:36:59;;;;;;;0.00;0.00;;;;;;;8.80;55.31;99648.41;5013314;28;20219;-61
2022/03/25 08:39:26;;;;;;;0.00;0.00;;;;;;;8.83;55.16;99640.38;5013493;28;20184;-60
2022/03/25 08:41:52;;;;;;;0.00;0.00;;;;;;;8.91;54.73;99640.63;5013200;28;20192;-61
2022/03/25 08:44:19;;;;;;;0.00;0.00;;;;;;;9.04;54.90;99639.72;5012949;28;20279;-61
2022/03/25 08:46:46;;;;;;;0.00;0.00;;;;;;;9.13;55.15;99639.03;5013113;28;20201;-60
2022/03/25 08:49:13;;;;;;;0.00;0.00;;;;;;;9.27;55.25;99644.03;5013258;28;20190;-60
2022/03/25 08:51:41;;;;;;;0.00;0.00;;;;;;;9.39;55.32;99641.44;5012933;28;20671;-61
2022/03/25 08:54:09;;;;;;;0.00;0.00;;;;;;;9.49;53.71;99644.13;5012482;28;20267;-61
2022/03/25 08:56:36;;;;;;;0.00;0.00;;;;;;;9.58;52.99;99644.25;5011633;28;20259;-60
2022/03/25 08:59:03;;;;;;;0.00;0.00;;;;;;;9.71;52.20;99651.09;5013152;28;20193;-61
2022/03/25 09:01:30;;;;;;;0.00;0.00;;;;;;;9.73;52.74;99647.44;5012853;28;20288;-60
2022/03/25 09:03:57;;;;;;;0.00;0.00;;;;;;;9.77;52.80;99650.63;5012797;28;20226;-61
2022/03/25 09:06:24;;;;;;;0.00;0.00;;;;;;;9.86;52.60;99643.88;5012817;28;20240;-61
2022/03/25 09:08:52;;;;;;;0.00;0.00;;;;;;;9.99;52.24;99639.34;5012973;28;20188;-61
2022/03/25 09:11:20;;;;;;;0.00;0.00;;;;;;;9.97;53.63;99649.06;5012509;28;20533;-61
2022/03/25 09:13:47;;;;;;;0.00;0.00;;;;;;;10.07;53.64;99648.34;5012933;28;20183;-61
2022/03/25 09:16:14;;;;;;;0.00;0.00;;;;;;;10.10;52.73;99654.13;5012266;28;20216;-61
2022/03/25 09:18:41;;;;;;;0.00;0.00;;;;;;;10.19;53.62;99650.78;5012555;28;20205;-61
2022/03/25 09:21:07;;;;;;;0.00;0.00;;;;;;;10.36;52.49;99656.44;5012475;28;20194;-61
2022/03/25 09:23:34;;;;;;;0.00;0.00;;;;;;;10.36;52.93;99653.81;5012703;28;20193;-61
2022/03/25 09:26:02;;;;;;;0.00;0.00;;;;;;;10.44;52.97;99654.06;5012123;28;20271;-59
2022/03/25 09:28:29;;;;;;;0.00;0.00;;;;;;;10.56;52.45;99654.84;5012530;28;20286;-60
2022/03/25 09:30:56;;;;;;;0.00;0.00;;;;;;;10.73;52.50;99653.44;5012060;28;20245;-61
2022/03/25 09:33:23;;;;;;;0.00;0.00;;;;;;;10.81;51.56;99657.22;5012479;28;20203;-61
2022/03/25 09:35:49;;;;;;;0.00;0.00;;;;;;;10.87;51.70;99652.31;5011939;28;20204;-59
2022/03/25 09:38:16;;;;;;;0.00;0.00;;;;;;;10.88;51.59;99651.38;5012442;28;20214;-61
2022/03/25 09:40:45;;;;;;;0.00;0.00;;;;;;;10.97;52.10;99654.19;5012064;28;20198;-61
2022/03/25 09:43:13;;;;;;;0.00;0.00;;;;;;;11.05;52.68;99649.13;5012207;28;20549;-61
2022/03/25 09:45:40;;;;;;;0.00;0.00;;;;;;;11.15;52.85;99650.00;5011633;28;20187;-61
2022/03/25 09:48:07;;;;;;;0.00;0.00;;;;;;;11.28;52.23;99649.81;5011766;28;20214;-60
2022/03/25 09:50:37;;;;;;;0.00;0.00;;;;;;;11.31;51.88;99646.94;5012091;28;20182;-60
2022/03/25 09:53:04;;;;;;;0.00;0.00;;;;;;;11.48;51.64;99647.28;5012167;28;20188;-59
2022/03/25 09:55:32;;;;;;;0.00;0.00;;;;;;;11.57;50.41;99646.50;5011592;28;20191;-59
2022/03/25 09:57:59;;;;;;;52.03;27.87;;;;;;;11.66;51.96;99653.53;5011652;28;20810;-60
2022/03/25 10:00:27;;;;;;;56.67;27.57;;;;;;;11.73;50.59;99643.38;5011620;28;20646;-60
2022/03/25 10:02:54;;;;;;;53.33;27.57;;;;;;;11.83;51.60;99643.38;5012129;28;20265;-60
2022/03/25 10:05:22;;;;;;;51.67;26.83;;;;;;;11.98;50.90;99640.38;5010994;28;20189;-60
2022/03/25 10:07:50;;;;;;;58.77;28.70;;;;;;;12.02;49.25;99642.66;5011610;28;20209;-60
2022/03/25 10:10:18;;;;;;;53.03;27.83;;;;;;;12.14;49.76;99635.50;5011407;28;20300;-60
2022/03/25 10:12:47;;;;;;;58.65;31.38;;;;;;;12.23;49.09;99633.84;5011069;28;20435;-60
2022/03/25 10:15:17;;;;;;;51.90;29.03;;;;;;;12.30;49.28;99629.72;5011274;28;20194;-60
2022/03/25 10:17:50;;;;;;;58.13;29.17;;;;;;;12.38;48.74;99636.91;5011426;28;20299;-61
2022/03/25 10:20:19;;;;;;;57.90;28.37;;;;;;;12.46;48.00;99637.03;5011298;28;20269;-60
2022/03/25 10:22:58;;;;;;;55.87;27.70;;;;;;;12.58;48.95;99634.28;5010329;28;20197;-58
2022/03/25 10:25:37;;;;;;;59.77;30.03;;;;;;;12.68;47.01;99628.06;5011009;28;20201;-58
2022/03/25 10:28:05;;;;;;;57.03;29.03;;;;;;;12.76;47.31;99627.34;5011225;28;20255;-60
2022/03/25 10:30:37;;;;;;;59.00;29.30;;;;;;;12.80;46.92;99626.09;5011079;28;20185;-60
2022/03/25 10:33:13;;;;;;;58.80;28.13;;;;;;;12.91;47.31;99619.88;5011406;28;20183;-60
2022/03/25 10:35:53;;;;;;;58.03;29.30;;;;;;;13.06;45.94;99619.44;5011177;28;20653;-60
2022/03/25 10:38:21;;;;;;;52.43;28.17;;;;;;;13.18;47.04;99609.59;5011218;28;20224;-58
2022/03/25 10:40:51;;;;;;;50.90;29.03;;;;;;;13.22;45.20;99614.41;5011046;28;20215;-58
2022/03/25 10:43:18;;;;;;;55.97;29.70;;;;;;;13.33;45.91;99615.19;5011191;28;20288;-58
2022/03/25 10:45:45;;;;;;;53.33;28.83;;;;;;;13.38;45.75;99612.94;5010714;28;20241;-58
2022/03/25 10:48:16;;;;;;;56.47;29.07;;;;;;;13.51;45.61;99617.91;5010924;28;20218;-58
2022/03/25 10:51:03;;;;;;;53.77;28.70;;;;;;;13.63;43.59;99613.28;5009896;28;20273;-61
2022/03/25 10:53:32;;;;;;;56.83;28.40;;;;;;;13.84;43.35;99613.03;5010551;28;20203;-58
2022/03/25 10:56:00;;;;;;;58.90;29.70;;;;;;;13.95;43.36;99609.38;5010646;28;20194;-58
2022/03/25 10:58:27;;;;;;;55.00;28.63;;;;;;;14.09;42.90;99613.28;5010782;28;20206;-58
2022/03/25 11:00:54;;;;;;;51.20;28.70;;;;;;;14.22;42.07;99605.03;5010810;28;20191;-58
2022/03/25 11:03:22;;;;;;;55.53;28.03;;;;;;;14.38;42.43;99604.34;5011061;28;20647;-58
2022/03/25 11:05:50;;;;;;;57.67;27.87;;;;;;;14.49;41.81;99596.25;5010629;28;20211;-58
2022/03/25 11:08:17;;;;;;;57.77;28.60;;;;;;;14.51;40.82;99599.53;5010885;28;20670;-58
2022/03/25 11:10:44;;;;;;;54.87;28.27;;;;;;;14.71;40.40;99600.19;5010851;28;20215;-58
2022/03/25 11:13:11;;;;;;;55.47;31.13;;;;;;;14.88;39.96;99593.25;5009955;28;20518;-58
2022/03/25 11:15:39;;;;;;;50.03;26.77;;;;;;;15.01;39.28;99595.47;5010748;28;20187;-58
2022/03/25 11:18:06;;;;;;;56.50;28.60;;;;;;;15.15;38.29;99596.69;5010982;28;20226;-61
2022/03/25 11:20:34;;;;;;;48.77;26.97;;;;;;;15.18;38.76;99590.31;5010822;28;20197;-59
2022/03/25 11:23:10;;;;;;;53.73;27.37;;;;;;;15.32;38.31;99586.25;5011046;28;20191;-58
2022/03/25 11:25:40;;;;;;;49.77;27.77;;;;;;;15.37;37.79;99589.22;5010570;28;20651;-59
2022/03/25 11:28:10;;;;;;;57.17;28.27;;;;;;;15.44;37.97;99589.41;5010680;28;20220;-59
2022/03/25 11:30:37;;;;;;;49.33;25.67;;;;;;;15.49;38.40;99582.69;5010751;28;20194;-58
2022/03/25 11:33:06;;;;;;;15.37;8.00;;;;;;;15.66;38.24;99585.38;5009552;28;20189;-59
2022/03/25 11:35:35;;;;;;;0.00;0.00;;;;;;;15.78;36.69;99568.31;5010461;28;20235;-59
2022/03/25 11:38:18;;;;;;;0.00;0.00;;;;;;;15.89;37.73;99561.94;5010503;28;20578;-59
2022/03/25 11:40:46;;;;;;;0.00;0.00;;;;;;;16.05;36.04;99563.75;5009344;28;20582;-59
2022/03/25 11:43:15;;;;;;;0.00;0.00;;;;;;;16.21;35.24;99575.28;5010845;28;20199;-59
2022/03/25 11:45:43;;;;;;;0.00;0.00;;;;;;;16.28;36.09;99568.38;5010480;28;20204;-59
2022/03/25 11:48:52;;;;;;;0.00;0.00;;;;;;;16.44;36.09;99561.44;5010936;28;20211;-59